Terminal Aerodrome Forecast
Issued by NWS Sioux Falls, SD

Home | Current Version | Previous Version | Text Only | Print | Product List | Glossary On
Versions: 1 2 3 4 5 6 7 8 9 10 11 12 13 14 15 16 17 18 19 20 21 22 23 24 25
000
FTUS43 KFSD 271100
TAFSUX
TAF
KSUX 271121Z 2712/2812 29007KT P6SM SKC
     FM271400 31016G22KT P6SM FEW025
     FM271600 33018G26KT P6SM SCT035
     FM272200 35016G22KT P6SM SCT040
     FM280100 35007KT P6SM SCT040
     FM280500 34005KT P6SM FEW035=

USA.gov is the U.S. government's official web portal to all federal, state and local government web resources and services.